TimeCST,TemperatureF,Dew PointF,Humidity,Sea Level PressureIn,VisibilityMPH,Wind Direction,Wind SpeedMPH,Gust SpeedMPH,PrecipitationIn,Events,Conditions,WindDirDegrees,DateUTC
12:23 AM,50.0,50.0,100,30.13,2.5,East,4.6,-,N/A,,Overcast,90,2013-11-16 06:23:00
12:53 AM,50.0,50.0,100,30.12,2.5,East,4.6,-,N/A,,Overcast,100,2013-11-16 06:53:00
1:53 AM,51.1,50.0,96,30.11,3.0,ESE,4.6,-,N/A,,Overcast,120,2013-11-16 07:53:00
2:53 AM,53.1,51.1,93,30.11,3.0,ESE,3.5,-,N/A,,Overcast,120,2013-11-16 08:53:00
3:53 AM,53.1,51.1,93,30.12,3.0,East,5.8,-,N/A,,Overcast,90,2013-11-16 09:53:00
4:08 AM,53.6,51.8,94,30.12,2.5,East,4.6,-,N/A,,Overcast,90,2013-11-16 10:08:00
4:50 AM,53.6,51.8,94,30.12,3.0,ESE,4.6,-,N/A,,Overcast,120,2013-11-16 10:50:00
4:53 AM,54.0,52.0,93,30.12,3.0,ESE,4.6,-,N/A,,Overcast,120,2013-11-16 10:53:00
5:53 AM,54.0,52.0,93,30.13,3.0,ESE,5.8,-,N/A,,Overcast,120,2013-11-16 11:53:00
6:53 AM,54.0,52.0,93,30.14,3.0,ESE,5.8,-,N/A,,Overcast,120,2013-11-16 12:53:00
7:09 AM,55.4,51.8,88,30.14,3.0,SE,6.9,-,N/A,,Overcast,130,2013-11-16 13:09:00
7:53 AM,55.9,53.1,90,30.14,4.0,SE,8.1,-,N/A,,Overcast,130,2013-11-16 13:53:00
8:53 AM,57.9,54.0,87,30.14,5.0,ESE,6.9,-,N/A,,Overcast,120,2013-11-16 14:53:00
9:21 AM,59.0,55.4,88,30.14,5.0,SE,9.2,-,N/A,,Overcast,140,2013-11-16 15:21:00
9:53 AM,60.1,55.0,83,30.14,6.0,SE,9.2,-,N/A,,Haze,140,2013-11-16 15:53:00
10:36 AM,60.8,57.2,88,30.14,2.5,South,9.2,-,0.01,Rain,Rain,170,2013-11-16 16:36:00
10:41 AM,60.8,57.2,88,30.14,3.0,SSE,9.2,-,0.01,Rain,Light Rain,160,2013-11-16 16:41:00
10:53 AM,62.1,57.9,86,30.13,5.0,SSE,10.4,-,0.01,Rain,Light Rain,160,2013-11-16 16:53:00
11:10 AM,62.6,57.2,82,30.12,6.0,SSE,10.4,-,0.00,,Overcast,150,2013-11-16 17:10:00
11:31 AM,62.6,57.2,82,30.11,7.0,SE,10.4,-,0.00,,Overcast,140,2013-11-16 17:31:00
11:53 AM,62.1,57.0,84,30.09,7.0,SSE,8.1,-,0.00,,Overcast,160,2013-11-16 17:53:00
12:08 PM,62.6,57.2,82,30.08,7.0,SSE,8.1,-,N/A,,Overcast,150,2013-11-16 18:08:00
12:53 PM,64.0,57.0,78,30.06,8.0,SE,6.9,-,N/A,,Overcast,130,2013-11-16 18:53:00
1:53 PM,64.9,57.9,78,30.04,9.0,SE,6.9,-,N/A,,Overcast,140,2013-11-16 19:53:00
2:53 PM,64.9,59.0,81,30.03,10.0,SE,10.4,-,N/A,,Overcast,140,2013-11-16 20:53:00
3:53 PM,64.9,57.9,78,30.04,9.0,SSE,10.4,-,N/A,,Overcast,150,2013-11-16 21:53:00
4:53 PM,64.0,57.9,80,30.04,10.0,SE,10.4,-,N/A,,Overcast,140,2013-11-16 22:53:00
5:53 PM,63.0,57.9,84,30.05,10.0,SE,11.5,-,N/A,,Overcast,140,2013-11-16 23:53:00
6:53 PM,63.0,57.0,81,30.06,10.0,SE,9.2,-,N/A,,Overcast,140,2013-11-17 00:53:00
7:16 PM,62.6,57.2,82,30.06,10.0,SSE,15.0,-,N/A,,Overcast,150,2013-11-17 01:16:00
7:35 PM,62.6,57.2,82,30.07,10.0,SE,12.7,-,N/A,,Overcast,140,2013-11-17 01:35:00
7:53 PM,63.0,57.0,81,30.06,10.0,SE,16.1,-,N/A,,Overcast,140,2013-11-17 01:53:00
8:53 PM,63.0,57.0,81,30.06,10.0,SSE,12.7,-,N/A,,Overcast,160,2013-11-17 02:53:00
9:35 PM,62.6,57.2,82,30.06,9.0,SSE,15.0,-,N/A,,Overcast,150,2013-11-17 03:35:00
9:45 PM,62.6,57.2,82,30.06,9.0,SSE,10.4,-,N/A,,Overcast,150,2013-11-17 03:45:00
9:53 PM,62.1,57.0,84,30.05,10.0,SSE,11.5,-,N/A,,Overcast,150,2013-11-17 03:53:00
10:03 PM,62.6,57.2,82,30.06,10.0,SSE,12.7,-,N/A,,Overcast,150,2013-11-17 04:03:00
10:53 PM,62.1,55.9,80,30.03,10.0,SSE,11.5,-,N/A,,Overcast,150,2013-11-17 04:53:00
11:53 PM,63.0,57.0,81,30.02,10.0,SSE,12.7,-,N/A,,Overcast,150,2013-11-17 05:53:00